createdAt,value
2022-10-06T00:01:19.789Z,53.51
2022-10-06T00:03:48.997Z,53.27
2022-10-06T00:06:18.880Z,53.50
2022-10-06T00:08:48.267Z,54.18
2022-10-06T00:11:17.767Z,53.88
2022-10-06T00:13:46.406Z,53.75
2022-10-06T00:16:19.132Z,53.86
2022-10-06T00:18:48.299Z,54.18
2022-10-06T00:21:16.970Z,54.33
2022-10-06T00:23:45.963Z,54.24
2022-10-06T00:26:17.434Z,54.10
2022-10-06T00:28:50.804Z,55.42
2022-10-06T00:31:20.049Z,55.19
2022-10-06T00:33:50.496Z,54.83
2022-10-06T00:36:19.328Z,54.78
2022-10-06T00:38:48.242Z,55.02
2022-10-06T00:41:19.290Z,55.17
2022-10-06T00:43:52.621Z,55.46
2022-10-06T00:46:24.793Z,55.25
2022-10-06T00:49:01.346Z,55.48
2022-10-06T00:51:32.728Z,55.55
2022-10-06T00:54:02.848Z,55.36
2022-10-06T00:56:32.065Z,55.41
2022-10-06T00:59:00.656Z,55.52
2022-10-06T01:01:32.749Z,55.67
2022-10-06T01:04:07.305Z,55.91
2022-10-06T01:06:46.159Z,55.88
2022-10-06T01:09:17.206Z,55.97
2022-10-06T01:11:49.127Z,55.94
2022-10-06T01:14:20.059Z,55.75
2022-10-06T01:16:55.912Z,56.16
2022-10-06T01:19:47.795Z,56.92
2022-10-06T01:22:20.376Z,56.95
2022-10-06T01:24:51.080Z,56.73
2022-10-06T01:27:21.130Z,56.44
2022-10-06T01:29:54.103Z,56.74
2022-10-06T01:32:25.838Z,56.86
2022-10-06T01:34:54.966Z,56.54
2022-10-06T01:37:23.859Z,56.66
2022-10-06T01:39:54.389Z,57.33
2022-10-06T01:42:25.848Z,56.73
2022-10-06T01:44:54.429Z,57.24
2022-10-06T01:47:22.802Z,57.31
2022-10-06T01:49:51.505Z,57.10
2022-10-06T01:52:21.303Z,57.35
2022-10-06T01:54:49.787Z,57.42
2022-10-06T01:57:18.682Z,57.54
2022-10-06T01:59:52.679Z,57.14
2022-10-06T02:02:23.729Z,57.76
2022-10-06T02:04:52.825Z,57.88
2022-10-06T02:07:21.509Z,57.54
2022-10-06T02:09:50.404Z,58.25
2022-10-06T02:12:18.986Z,58.04
2022-10-06T02:14:47.570Z,57.67
2022-10-06T02:17:16.050Z,57.49
2022-10-06T02:19:45.790Z,57.59
2022-10-06T02:22:14.554Z,57.62
2022-10-06T02:24:43.357Z,57.66
2022-10-06T02:27:11.822Z,57.51
2022-10-06T02:29:40.508Z,57.47
2022-10-06T02:32:09.402Z,57.66
2022-10-06T02:34:38.291Z,57.69
2022-10-06T02:37:06.979Z,58.33
2022-10-06T02:39:36.084Z,58.57
2022-10-06T02:42:05.689Z,58.42
2022-10-06T02:44:34.368Z,58.64
2022-10-06T02:47:03.779Z,58.44
2022-10-06T02:49:32.463Z,58.39
2022-10-06T02:52:01.147Z,58.23
2022-10-06T02:54:29.846Z,58.25
2022-10-06T02:56:59.851Z,58.70
2022-10-06T02:59:28.844Z,58.70
2022-10-06T03:01:57.621Z,58.78
2022-10-06T03:04:26.319Z,58.83
2022-10-06T03:06:56.503Z,58.58
2022-10-06T03:09:27.889Z,58.49
2022-10-06T03:11:56.912Z,58.38
2022-10-06T03:14:36.329Z,59.08
2022-10-06T03:17:10.238Z,58.86
2022-10-06T03:19:43.320Z,58.77
2022-10-06T03:22:12.219Z,59.39
2022-10-06T03:25:01.075Z,59.36
2022-10-06T03:27:29.658Z,59.33
2022-10-06T03:30:01.727Z,59.00
2022-10-06T03:32:32.761Z,59.34
2022-10-06T03:35:01.456Z,59.26
2022-10-06T03:37:30.443Z,59.24
2022-10-06T03:39:59.029Z,59.38
2022-10-06T03:42:28.227Z,59.48
2022-10-06T03:44:56.920Z,59.60
2022-10-06T03:47:26.423Z,59.68
2022-10-06T03:49:54.900Z,59.88
2022-10-06T03:52:26.137Z,60.03
2022-10-06T03:54:55.960Z,59.55
2022-10-06T03:57:24.750Z,59.87
2022-10-06T03:59:53.642Z,59.89
2022-10-06T04:02:22.280Z,60.67
2022-10-06T04:04:51.016Z,60.80
2022-10-06T04:07:19.699Z,60.46
2022-10-06T04:09:48.517Z,60.70
2022-10-06T04:12:18.198Z,60.87
2022-10-06T04:14:47.093Z,61.26
2022-10-06T04:17:15.577Z,61.28
2022-10-06T04:19:44.160Z,60.63
2022-10-06T04:22:12.964Z,60.85
2022-10-06T04:24:41.736Z,60.85
2022-10-06T04:27:29.470Z,60.49
2022-10-06T04:30:08.316Z,60.52
2022-10-06T04:32:37.182Z,60.32
2022-10-06T04:35:06.792Z,60.24
2022-10-06T04:37:35.593Z,59.92
2022-10-06T04:40:05.678Z,59.81
2022-10-06T04:42:35.518Z,60.09
2022-10-06T04:45:08.502Z,60.36
2022-10-06T04:47:38.312Z,59.94
2022-10-06T04:50:07.305Z,59.66
2022-10-06T04:52:36.404Z,60.05
2022-10-06T04:55:06.070Z,60.12
2022-10-06T04:57:34.905Z,60.49
2022-10-06T05:00:22.952Z,60.32
2022-10-06T05:02:58.078Z,60.08
2022-10-06T05:05:26.872Z,60.11
2022-10-06T05:07:56.685Z,59.99
2022-10-06T05:10:26.289Z,60.37
2022-10-06T05:12:57.443Z,60.33
2022-10-06T05:15:28.581Z,60.87
2022-10-06T05:17:57.651Z,60.94
2022-10-06T05:20:26.464Z,60.93
2022-10-06T05:22:55.457Z,60.62
2022-10-06T05:25:25.176Z,60.96
2022-10-06T05:27:53.752Z,60.58
2022-10-06T05:30:22.541Z,61.00
2022-10-06T05:32:52.558Z,60.97
2022-10-06T05:35:21.668Z,60.82
2022-10-06T05:37:50.344Z,61.05
2022-10-06T05:40:19.236Z,60.82
2022-10-06T05:42:47.818Z,60.44
2022-10-06T05:45:16.507Z,60.59
2022-10-06T05:47:45.290Z,61.02
2022-10-06T05:50:13.983Z,61.51
2022-10-06T05:52:42.889Z,61.30
2022-10-06T05:55:11.967Z,61.21
2022-10-06T05:57:40.859Z,61.10
2022-10-06T06:00:10.370Z,61.27
2022-10-06T06:02:41.672Z,60.90
2022-10-06T06:05:11.425Z,61.03
2022-10-06T06:07:39.903Z,61.05
2022-10-06T06:10:09.768Z,61.13
2022-10-06T06:12:38.301Z,60.86
2022-10-06T06:15:35.044Z,61.21
2022-10-06T06:18:06.409Z,61.55
2022-10-06T06:20:35.185Z,61.70
2022-10-06T06:23:04.079Z,61.84
2022-10-06T06:25:32.970Z,62.03
2022-10-06T06:28:01.776Z,62.35
2022-10-06T06:30:30.442Z,62.02
2022-10-06T06:33:00.589Z,61.84
2022-10-06T06:35:30.583Z,61.85
2022-10-06T06:37:59.987Z,61.78
2022-10-06T06:40:29.898Z,61.50
2022-10-06T06:42:58.589Z,61.62
2022-10-06T06:45:41.452Z,61.55
2022-10-06T06:48:20.846Z,61.18
2022-10-06T06:50:57.619Z,61.04
2022-10-06T06:53:26.338Z,60.28
2022-10-06T06:55:58.417Z,60.29
2022-10-06T06:58:27.692Z,60.04
2022-10-06T07:01:14.552Z,59.53
2022-10-06T07:03:58.086Z,59.44
2022-10-06T07:06:31.398Z,59.25
2022-10-06T07:09:01.842Z,58.97
2022-10-06T07:11:37.030Z,58.94
2022-10-06T07:14:12.948Z,58.83
2022-10-06T07:17:03.023Z,58.51
2022-10-06T07:19:43.590Z,58.80
2022-10-06T07:22:36.134Z,58.62
2022-10-06T07:25:26.975Z,58.32
2022-10-06T07:28:07.096Z,58.06
2022-10-06T07:30:40.841Z,58.07
2022-10-06T07:33:19.012Z,57.89
2022-10-06T07:35:48.415Z,57.96
2022-10-06T07:38:24.986Z,58.02
2022-10-06T07:43:47.558Z,57.65
2022-10-06T07:46:19.658Z,57.71
2022-10-06T07:49:17.792Z,57.69
2022-10-06T07:51:46.991Z,57.66
2022-10-06T07:54:15.779Z,57.57
2022-10-06T07:57:03.037Z,57.61
2022-10-06T07:59:31.584Z,57.77
2022-10-06T08:02:00.249Z,57.68
2022-10-06T08:04:29.060Z,57.69
2022-10-06T08:06:58.981Z,57.59
2022-10-06T08:09:27.577Z,57.74
2022-10-06T08:11:56.350Z,57.61
2022-10-06T08:14:25.245Z,57.96
2022-10-06T08:16:53.825Z,57.93
2022-10-06T08:19:22.514Z,58.09
2022-10-06T08:21:50.991Z,57.90
2022-10-06T08:24:21.008Z,57.72
2022-10-06T08:26:49.901Z,57.45
2022-10-06T08:29:18.690Z,57.04
2022-10-06T08:31:47.374Z,56.93
2022-10-06T08:34:16.167Z,56.92
2022-10-06T08:37:02.163Z,56.75
2022-10-06T08:39:34.148Z,56.40
2022-10-06T08:42:03.495Z,56.01
2022-10-06T08:44:42.553Z,55.87
2022-10-06T08:47:14.747Z,55.58
2022-10-06T08:49:55.623Z,55.46
2022-10-06T08:52:51.519Z,55.19
2022-10-06T08:55:26.391Z,54.88
2022-10-06T08:58:14.188Z,53.64
2022-10-06T09:00:43.196Z,53.77
2022-10-06T09:03:24.405Z,53.97
2022-10-06T09:06:17.259Z,53.46
2022-10-06T09:08:53.608Z,52.87
2022-10-06T09:11:40.285Z,51.86
2022-10-06T09:14:33.658Z,51.74
2022-10-06T09:17:08.396Z,51.62
2022-10-06T09:20:03.589Z,50.45
2022-10-06T09:22:32.787Z,50.10
2022-10-06T09:25:20.341Z,50.46
2022-10-06T09:27:54.260Z,50.41
2022-10-06T09:30:24.186Z,49.77
2022-10-06T09:33:01.141Z,48.42
2022-10-06T09:35:32.227Z,48.22
2022-10-06T09:38:09.111Z,46.90
2022-10-06T09:40:49.660Z,46.21
2022-10-06T09:43:31.514Z,46.30
2022-10-06T09:46:22.103Z,45.54
2022-10-06T09:49:17.925Z,45.63
2022-10-06T09:52:15.541Z,45.51
2022-10-06T09:54:45.158Z,45.72
2022-10-06T09:57:22.797Z,45.68
2022-10-06T09:59:53.702Z,44.78
2022-10-06T10:02:37.413Z,43.71
2022-10-06T10:05:19.200Z,43.61
2022-10-06T10:08:01.988Z,42.60
2022-10-06T10:10:30.976Z,43.02
2022-10-06T10:13:00.721Z,43.31
2022-10-06T10:15:52.623Z,42.23
2022-10-06T10:18:26.990Z,41.89
2022-10-06T10:21:08.836Z,42.97
2022-10-06T10:23:43.016Z,41.75
2022-10-06T10:26:20.890Z,40.75
2022-10-06T10:28:55.375Z,41.33
2022-10-06T10:31:33.783Z,40.96
2022-10-06T10:34:24.477Z,39.50
2022-10-06T10:37:20.211Z,39.86
2022-10-06T10:39:54.876Z,39.94
2022-10-06T10:42:35.250Z,40.14
2022-10-06T10:45:11.668Z,39.64
2022-10-06T10:47:45.069Z,39.21
2022-10-06T10:50:38.225Z,39.94
2022-10-06T10:53:24.326Z,39.13
2022-10-06T10:55:54.186Z,38.77
2022-10-06T10:58:28.565Z,39.38
2022-10-06T11:01:05.406Z,38.91
2022-10-06T11:03:34.219Z,38.08
2022-10-06T11:06:38.033Z,39.07
2022-10-06T11:09:19.635Z,38.54
2022-10-06T11:12:03.870Z,38.01
2022-10-06T11:14:57.589Z,37.72
2022-10-06T11:18:01.763Z,38.53
2022-10-06T11:20:44.400Z,38.45
2022-10-06T11:23:25.249Z,39.01
2022-10-06T11:25:59.784Z,38.12
2022-10-06T11:28:56.517Z,38.73
2022-10-06T11:31:43.407Z,37.20
2022-10-06T11:34:13.254Z,37.41
2022-10-06T11:37:16.462Z,36.41
2022-10-06T11:40:22.399Z,36.80
2022-10-06T11:42:53.959Z,35.24
2022-10-06T11:45:48.233Z,36.69
2022-10-06T11:48:28.330Z,37.02
2022-10-06T11:51:17.872Z,35.00
2022-10-06T11:53:46.759Z,34.85
2022-10-06T11:56:16.266Z,35.33
2022-10-06T11:58:51.210Z,36.90
2022-10-06T12:01:32.605Z,37.23
2022-10-06T12:04:09.338Z,36.83
2022-10-06T12:06:45.148Z,36.90
2022-10-06T12:09:41.037Z,34.83
2022-10-06T12:12:18.121Z,36.07
2022-10-06T12:18:29.424Z,37.48
2022-10-06T12:21:11.869Z,37.02
2022-10-06T12:24:16.974Z,37.30
2022-10-06T12:27:10.778Z,37.53
2022-10-06T12:30:14.453Z,37.73
2022-10-06T12:33:12.735Z,36.88
2022-10-06T12:35:41.421Z,36.06
2022-10-06T12:38:56.495Z,35.42
2022-10-06T12:41:56.211Z,36.92
2022-10-06T12:44:38.951Z,37.44
2022-10-06T12:47:42.067Z,36.65
2022-10-06T12:50:13.809Z,36.71
2022-10-06T12:53:01.509Z,37.16
2022-10-06T12:55:47.505Z,36.64
2022-10-06T12:58:21.443Z,36.59
2022-10-06T13:00:50.912Z,37.03
2022-10-06T13:03:25.419Z,36.85
2022-10-06T13:05:57.935Z,35.07
2022-10-06T13:08:29.586Z,36.05
2022-10-06T13:11:21.825Z,35.21
2022-10-06T13:13:55.957Z,36.15
2022-10-06T13:16:34.077Z,36.31
2022-10-06T13:19:02.621Z,36.60
2022-10-06T13:21:31.201Z,36.48
2022-10-06T13:24:00.202Z,36.76
2022-10-06T13:26:31.146Z,36.58
2022-10-06T13:29:00.647Z,36.11
2022-10-06T13:31:33.835Z,36.74
2022-10-06T13:34:02.324Z,37.00
2022-10-06T13:36:34.502Z,37.16
2022-10-06T13:39:23.706Z,37.17
2022-10-06T13:42:05.848Z,36.59
2022-10-06T13:44:40.430Z,36.18
2022-10-06T13:47:17.844Z,36.34
2022-10-06T13:50:00.753Z,36.44
2022-10-06T13:52:36.434Z,36.92
2022-10-06T13:55:17.124Z,36.46
2022-10-06T13:57:49.480Z,36.68
2022-10-06T14:00:27.078Z,36.36
2022-10-06T14:03:08.761Z,36.63
2022-10-06T14:05:42.168Z,36.85
2022-10-06T14:08:10.956Z,37.05
2022-10-06T14:11:01.350Z,36.56
2022-10-06T14:13:39.659Z,36.79
2022-10-06T14:16:21.033Z,36.38
2022-10-06T14:21:34.598Z,36.94
2022-10-06T14:24:23.764Z,37.05
2022-10-06T14:26:55.112Z,37.13
2022-10-06T14:29:23.813Z,37.12
2022-10-06T14:31:53.273Z,37.15
2022-10-06T14:34:23.015Z,37.14
2022-10-06T14:36:52.113Z,37.22
2022-10-06T14:39:21.515Z,37.40
2022-10-06T14:41:50.505Z,37.47
2022-10-06T14:44:19.300Z,37.25
2022-10-06T14:46:49.426Z,37.53
2022-10-06T14:49:18.618Z,37.73
2022-10-06T14:51:47.339Z,37.87
2022-10-06T14:54:16.208Z,37.90
2022-10-06T14:56:44.777Z,37.95
2022-10-06T14:59:17.379Z,38.09
2022-10-06T15:02:34.545Z,38.30
2022-10-06T15:05:03.366Z,38.21
2022-10-06T15:07:50.404Z,38.39
2022-10-06T15:10:19.083Z,38.56
2022-10-06T15:12:47.556Z,38.53
2022-10-06T15:15:16.955Z,38.63
2022-10-06T15:17:46.668Z,38.54
2022-10-06T15:20:17.605Z,38.85
2022-10-06T15:22:46.197Z,38.90
2022-10-06T15:25:35.067Z,38.99
2022-10-06T15:28:23.672Z,39.22
2022-10-06T15:30:52.451Z,39.30
2022-10-06T15:33:20.975Z,39.57
2022-10-06T15:36:14.343Z,39.78
2022-10-06T15:38:43.549Z,40.15
2022-10-06T15:41:12.369Z,40.38
2022-10-06T15:43:57.419Z,40.31
2022-10-06T15:46:34.734Z,40.74
2022-10-06T15:49:06.444Z,40.77
2022-10-06T15:51:38.650Z,41.20
2022-10-06T15:54:07.401Z,41.31
2022-10-06T15:56:37.842Z,41.38
2022-10-06T15:59:07.641Z,41.71
2022-10-06T16:01:36.221Z,41.80
2022-10-06T16:04:12.798Z,42.09
2022-10-06T16:06:49.209Z,42.29
2022-10-06T16:09:21.440Z,42.32
2022-10-06T16:11:50.744Z,42.58
2022-10-06T16:14:19.572Z,42.86
2022-10-06T16:16:48.892Z,43.06
2022-10-06T16:19:19.065Z,43.23
2022-10-06T16:21:49.565Z,43.33
2022-10-06T16:24:20.121Z,43.33
2022-10-06T16:26:50.029Z,43.55
2022-10-06T16:29:20.636Z,43.92
2022-10-06T16:31:49.519Z,43.93
2022-10-06T16:34:19.179Z,44.18
2022-10-06T16:36:47.639Z,44.38
2022-10-06T16:39:18.746Z,44.28
2022-10-06T16:41:47.879Z,44.47
2022-10-06T16:44:17.276Z,44.53
2022-10-06T16:46:46.221Z,44.56
2022-10-06T16:49:14.962Z,44.78
2022-10-06T16:51:47.710Z,45.10
2022-10-06T16:54:21.253Z,45.24
2022-10-06T16:56:58.641Z,45.41
2022-10-06T16:59:27.343Z,45.40
2022-10-06T17:01:55.915Z,45.54
2022-10-06T17:04:25.992Z,45.69
2022-10-06T17:06:57.100Z,45.94
2022-10-06T17:09:28.594Z,46.04
2022-10-06T17:12:02.125Z,46.38
2022-10-06T17:14:32.872Z,46.50
2022-10-06T17:17:01.967Z,46.58
2022-10-06T17:19:31.438Z,46.69
2022-10-06T17:22:00.380Z,46.73
2022-10-06T17:24:31.422Z,46.91
2022-10-06T17:27:00.999Z,46.94
2022-10-06T17:29:29.587Z,47.15
2022-10-06T17:32:01.403Z,47.34
2022-10-06T17:34:32.690Z,47.41
2022-10-06T17:37:03.067Z,47.55
2022-10-06T17:39:32.322Z,47.60
2022-10-06T17:42:00.905Z,47.71
2022-10-06T17:44:31.409Z,47.99
2022-10-06T17:47:00.820Z,49.05
2022-10-06T17:49:33.117Z,48.72
2022-10-06T17:52:01.898Z,48.39
2022-10-06T17:54:34.784Z,48.37
2022-10-06T17:57:03.532Z,48.69
2022-10-06T17:59:32.360Z,48.61
2022-10-06T18:02:07.478Z,48.68
2022-10-06T18:04:36.802Z,48.80
2022-10-06T18:07:06.507Z,48.70
2022-10-06T18:09:35.707Z,49.24
2022-10-06T18:12:05.313Z,49.19
2022-10-06T18:14:34.206Z,49.22
2022-10-06T18:17:04.246Z,49.39
2022-10-06T18:19:36.075Z,49.40
2022-10-06T18:22:11.964Z,49.32
2022-10-06T18:24:41.036Z,49.31
2022-10-06T18:27:09.728Z,49.54
2022-10-06T18:29:39.534Z,49.61
2022-10-06T18:33:19.344Z,49.71
2022-10-06T18:37:46.601Z,49.76
2022-10-06T18:40:15.762Z,49.88
2022-10-06T18:42:44.490Z,50.13
2022-10-06T18:45:35.523Z,50.22
2022-10-06T18:48:27.216Z,50.23
2022-10-06T18:51:00.529Z,50.33
2022-10-06T18:53:33.049Z,50.47
2022-10-06T19:04:05.890Z,50.99
2022-10-06T19:06:36.081Z,50.60
2022-10-06T19:09:06.611Z,50.67
2022-10-06T19:11:42.697Z,50.72
2022-10-06T19:14:13.764Z,50.68
2022-10-06T19:16:43.516Z,50.67
2022-10-06T19:19:16.697Z,50.58
2022-10-06T19:21:51.038Z,50.53
2022-10-06T19:24:22.157Z,50.55
2022-10-06T19:26:52.531Z,50.59
2022-10-06T19:29:24.230Z,50.56
2022-10-06T19:31:56.670Z,50.70
2022-10-06T19:34:26.393Z,50.74
2022-10-06T19:36:55.472Z,50.68
2022-10-06T19:39:27.783Z,50.94
2022-10-06T19:42:15.681Z,50.86
2022-10-06T19:44:44.691Z,50.84
2022-10-06T19:47:15.603Z,50.93
2022-10-06T19:49:45.325Z,51.05
2022-10-06T19:52:14.497Z,51.10
2022-10-06T19:54:43.248Z,51.21
2022-10-06T19:57:12.411Z,51.29
2022-10-06T19:59:41.096Z,51.40
2022-10-06T20:02:11.938Z,51.94
2022-10-06T20:04:40.781Z,51.95
2022-10-06T20:07:09.514Z,51.79
2022-10-06T20:09:38.196Z,51.71
2022-10-06T20:12:06.989Z,51.74
2022-10-06T20:14:36.492Z,51.78
2022-10-06T20:17:05.228Z,51.71
2022-10-06T20:19:34.680Z,51.85
2022-10-06T20:22:03.888Z,52.09
2022-10-06T20:24:32.569Z,52.88
2022-10-06T20:27:01.150Z,52.74
2022-10-06T20:29:31.887Z,52.63
2022-10-06T20:32:00.469Z,52.84
2022-10-06T20:34:33.175Z,52.81
2022-10-06T20:37:04.320Z,52.96
2022-10-06T20:39:52.958Z,53.21
2022-10-06T20:42:22.155Z,53.31
2022-10-06T20:44:50.940Z,54.02
2022-10-06T20:47:19.622Z,54.44
2022-10-06T20:49:54.201Z,54.01
2022-10-06T20:52:24.365Z,54.04
2022-10-06T20:54:52.955Z,54.14
2022-10-06T20:57:21.354Z,54.28
2022-10-06T20:59:50.076Z,54.76
2022-10-06T21:02:19.281Z,54.71
2022-10-06T21:04:48.125Z,54.81
2022-10-06T21:07:18.786Z,54.97
2022-10-06T21:09:51.989Z,54.99
2022-10-06T21:12:21.228Z,54.91
2022-10-06T21:14:49.968Z,55.04
2022-10-06T21:17:19.307Z,55.01
2022-10-06T21:19:47.908Z,55.11
2022-10-06T21:22:16.735Z,54.95
2022-10-06T21:24:45.276Z,55.07
2022-10-06T21:27:13.758Z,55.17
2022-10-06T21:29:42.955Z,55.20
2022-10-06T21:32:11.437Z,55.24
2022-10-06T21:34:40.449Z,55.33
2022-10-06T21:37:09.019Z,55.36
2022-10-06T21:39:37.841Z,55.34
2022-10-06T21:42:06.287Z,55.36
2022-10-06T21:44:34.680Z,55.36
2022-10-06T21:47:03.407Z,55.75
2022-10-06T21:49:32.139Z,55.96
2022-10-06T21:52:05.132Z,56.06
2022-10-06T21:54:33.615Z,55.90
2022-10-06T21:57:02.322Z,56.06
2022-10-06T21:59:30.687Z,55.78
2022-10-06T22:01:59.967Z,55.90
2022-10-06T22:04:28.561Z,56.11
2022-10-06T22:06:57.349Z,55.93
2022-10-06T22:09:26.240Z,55.72
2022-10-06T22:11:54.771Z,55.88
2022-10-06T22:14:23.409Z,56.06
2022-10-06T22:16:52.416Z,55.70
2022-10-06T22:19:21.502Z,56.25
2022-10-06T22:21:50.091Z,55.99
2022-10-06T22:24:21.388Z,55.86
2022-10-06T22:26:50.456Z,55.59
2022-10-06T22:29:20.655Z,55.67
2022-10-06T22:31:49.830Z,55.76
2022-10-06T22:34:20.958Z,55.65
2022-10-06T22:36:49.583Z,56.04
2022-10-06T22:39:18.266Z,56.04
2022-10-06T22:41:46.956Z,55.75
2022-10-06T22:44:15.537Z,56.25
2022-10-06T22:46:44.244Z,55.93
2022-10-06T22:49:13.019Z,56.25
2022-10-06T22:51:41.802Z,56.06
2022-10-06T22:54:19.511Z,55.90
2022-10-06T22:56:48.186Z,55.90
2022-10-06T22:59:16.979Z,56.00
2022-10-06T23:01:45.591Z,55.99
2022-10-06T23:04:14.654Z,55.99
2022-10-06T23:06:43.234Z,55.92
2022-10-06T23:09:12.040Z,55.91
2022-10-06T23:11:40.812Z,55.97
2022-10-06T23:14:09.503Z,55.90
2022-10-06T23:16:38.246Z,55.91
2022-10-06T23:19:06.977Z,55.92
2022-10-06T23:21:37.406Z,55.90
2022-10-06T23:24:06.815Z,55.84
2022-10-06T23:26:35.392Z,56.60
2022-10-06T23:29:04.590Z,56.33
2022-10-06T23:31:33.861Z,56.29
2022-10-06T23:34:02.579Z,56.11
2022-10-06T23:36:31.263Z,56.13
2022-10-06T23:39:00.818Z,56.17
2022-10-06T23:41:29.455Z,56.17
2022-10-06T23:43:57.938Z,56.22
2022-10-06T23:46:26.523Z,56.22
2022-10-06T23:48:55.241Z,56.29
2022-10-06T23:51:23.794Z,56.34
2022-10-06T23:53:52.685Z,56.37
2022-10-06T23:56:22.086Z,56.31
2022-10-06T23:58:50.778Z,56.38
